Aurora, Utah
Current Conditions -  °F | °C
As of 10:55 PM on Friday 19 Dec 2014 (Local Time) from KDTA Reporting Station
Broken Clouds Broken Clouds  
Wind Chill: 30°   Ceiling: 5500
Heat Index: 39°   Visibility: 10mi
Dew Point: 27°   Wind: 16mph
Humidity: 62%   Direction: 190°S
Pressure: 30.14"   Gusts: NA
Location:  38.92°N, 111.93°W
Report Text: KDTA 200555Z AUTO 19014KT 10SM BKN055 BKN110 04/M03 A3014 RMK AO1 T00401026 10078 21056
Loading
Personal Weather Stations






























Interactive Weather Map New forecast layout! Learn more

10-Day Weather Forecast

Advertisements
Track Severe Weather on mobile